createdAt,value
2018-12-29T00:00:26.377Z,7.12
2018-12-29T00:02:53.319Z,6.81
2018-12-29T00:05:20.268Z,6.87
2018-12-29T00:07:47.239Z,7.06
2018-12-29T00:10:14.204Z,7.19
2018-12-29T00:12:41.173Z,7.00
2018-12-29T00:15:08.136Z,6.94
2018-12-29T00:17:35.104Z,7.00
2018-12-29T00:20:02.062Z,7.25
2018-12-29T00:22:29.068Z,6.94
2018-12-29T00:24:56.081Z,6.87
2018-12-29T00:27:23.106Z,7.12
2018-12-29T00:29:50.258Z,7.00
2018-12-29T00:32:17.265Z,7.12
2018-12-29T00:34:44.271Z,6.94
2018-12-29T00:37:11.201Z,7.06
2018-12-29T00:39:38.127Z,6.81
2018-12-29T00:42:05.061Z,7.12
2018-12-29T00:44:31.988Z,6.94
2018-12-29T00:46:58.953Z,7.12
2018-12-29T00:49:25.909Z,6.81
2018-12-29T00:51:52.830Z,6.94
2018-12-29T00:54:20.261Z,6.87
2018-12-29T00:56:47.171Z,7.19
2018-12-29T00:59:14.118Z,6.94
2018-12-29T01:01:41.110Z,7.06
2018-12-29T01:04:08.100Z,7.06
2018-12-29T01:06:35.062Z,7.06
2018-12-29T01:09:02.790Z,6.94
2018-12-29T01:11:29.016Z,6.87
2018-12-29T01:13:55.991Z,7.00
2018-12-29T01:16:22.881Z,7.06
2018-12-29T01:18:50.605Z,7.12
2018-12-29T01:21:17.513Z,7.12
2018-12-29T01:23:44.457Z,7.12
2018-12-29T01:26:11.410Z,6.87
2018-12-29T01:28:38.338Z,7.12
2018-12-29T01:31:05.332Z,6.94
2018-12-29T01:33:32.244Z,7.06
2018-12-29T01:35:59.177Z,7.00
2018-12-29T01:38:26.152Z,6.75
2018-12-29T01:40:53.085Z,6.94
2018-12-29T01:43:20.033Z,7.12
2018-12-29T01:45:47.010Z,7.12
2018-12-29T01:48:14.651Z,7.12
2018-12-29T01:50:41.615Z,7.19
2018-12-29T01:53:08.549Z,6.94
2018-12-29T01:55:35.485Z,6.87
2018-12-29T01:58:02.402Z,6.94
2018-12-29T02:00:29.349Z,6.94
2018-12-29T02:02:56.337Z,6.94
2018-12-29T02:05:23.380Z,6.81
2018-12-29T02:07:50.398Z,7.19
2018-12-29T02:10:17.374Z,6.94
2018-12-29T02:12:44.318Z,6.87
2018-12-29T02:15:11.282Z,6.87
2018-12-29T02:17:38.279Z,7.06
2018-12-29T02:20:05.372Z,6.94
2018-12-29T02:22:32.332Z,6.94
2018-12-29T02:24:59.350Z,7.12
2018-12-29T02:27:26.810Z,7.19
2018-12-29T02:29:53.770Z,7.12
2018-12-29T02:32:20.746Z,6.94
2018-12-29T02:34:47.687Z,7.00
2018-12-29T02:37:14.698Z,6.94
2018-12-29T02:39:41.770Z,7.06
2018-12-29T02:42:08.739Z,7.06
2018-12-29T02:44:35.711Z,6.94
2018-12-29T02:47:02.685Z,6.81
2018-12-29T02:49:29.627Z,6.87
2018-12-29T02:51:57.014Z,6.87
2018-12-29T02:54:23.999Z,7.00
2018-12-29T02:56:51.800Z,6.87
2018-12-29T02:59:18.807Z,6.81
2018-12-29T03:01:45.793Z,6.69
2018-12-29T03:04:12.754Z,6.94
2018-12-29T03:06:40.440Z,7.19
2018-12-29T03:09:07.451Z,7.12
2018-12-29T03:11:34.906Z,6.87
2018-12-29T03:14:01.885Z,7.12
2018-12-29T03:16:28.939Z,7.06
2018-12-29T03:18:55.930Z,7.12
2018-12-29T03:21:22.889Z,7.06
2018-12-29T03:23:50.005Z,7.12
2018-12-29T03:26:16.967Z,6.87
2018-12-29T03:28:43.922Z,6.87
2018-12-29T03:31:11.804Z,6.94
2018-12-29T03:33:38.889Z,6.81
2018-12-29T03:36:06.071Z,6.62
2018-12-29T03:38:33.031Z,6.62
2018-12-29T03:41:00.062Z,6.94
2018-12-29T03:43:27.035Z,6.94
2018-12-29T03:45:54.022Z,7.06
2018-12-29T03:48:20.985Z,6.94
2018-12-29T03:50:47.944Z,6.87
2018-12-29T03:53:14.921Z,6.62
2018-12-29T03:55:41.872Z,6.94
2018-12-29T03:58:08.855Z,6.81
2018-12-29T04:00:35.789Z,7.00
2018-12-29T04:03:02.728Z,7.00
2018-12-29T04:05:29.752Z,6.87
2018-12-29T04:07:56.721Z,7.00
2018-12-29T04:10:23.661Z,6.94
2018-12-29T04:12:53.809Z,6.87
2018-12-29T04:15:20.817Z,7.06
2018-12-29T04:17:47.783Z,6.94
2018-12-29T04:20:14.697Z,6.94
2018-12-29T04:22:42.153Z,7.00
2018-12-29T04:25:09.065Z,7.00
2018-12-29T04:27:36.010Z,7.06
2018-12-29T04:30:03.110Z,6.94
2018-12-29T04:32:30.032Z,6.87
2018-12-29T04:34:56.952Z,7.19
2018-12-29T04:37:23.872Z,6.75
2018-12-29T04:39:51.518Z,6.87
2018-12-29T04:42:18.479Z,6.94
2018-12-29T04:44:45.451Z,6.94
2018-12-29T04:47:12.395Z,7.00
2018-12-29T04:49:39.374Z,7.19
2018-12-29T04:52:07.871Z,7.00
2018-12-29T04:54:33.331Z,6.81
2018-12-29T04:57:00.307Z,7.12
2018-12-29T04:59:27.260Z,6.81
2018-12-29T05:01:54.207Z,6.94
2018-12-29T05:04:21.177Z,6.75
2018-12-29T05:06:48.130Z,6.87
2018-12-29T05:09:15.589Z,7.00
2018-12-29T05:11:42.519Z,6.81
2018-12-29T05:14:09.519Z,7.00
2018-12-29T05:16:36.463Z,6.69
2018-12-29T05:19:03.412Z,6.81
2018-12-29T05:21:30.430Z,6.94
2018-12-29T05:23:57.416Z,7.00
2018-12-29T05:26:24.403Z,6.69
2018-12-29T05:28:52.112Z,6.87
2018-12-29T05:31:19.090Z,6.87
2018-12-29T05:33:46.033Z,6.75
2018-12-29T05:36:12.978Z,6.87
2018-12-29T05:38:39.921Z,6.69
2018-12-29T05:41:06.869Z,6.62
2018-12-29T05:43:33.815Z,6.94
2018-12-29T05:46:00.777Z,6.75
2018-12-29T05:48:27.704Z,6.75
2018-12-29T05:50:54.675Z,6.94
2018-12-29T05:53:21.627Z,6.81
2018-12-29T05:55:48.588Z,6.87
2018-12-29T05:58:15.592Z,6.94
2018-12-29T06:00:42.638Z,6.94
2018-12-29T06:03:09.610Z,6.75
2018-12-29T06:05:36.541Z,6.81
2018-12-29T06:08:03.530Z,6.75
2018-12-29T06:10:30.498Z,6.75
2018-12-29T06:12:57.988Z,6.81
2018-12-29T06:15:24.974Z,6.87
2018-12-29T06:17:51.967Z,6.87
2018-12-29T06:20:18.898Z,6.62
2018-12-29T06:22:45.930Z,6.94
2018-12-29T06:25:12.891Z,6.75
2018-12-29T06:27:39.829Z,7.00
2018-12-29T06:30:07.467Z,6.81
2018-12-29T06:32:34.430Z,6.87
2018-12-29T06:35:01.387Z,6.62
2018-12-29T06:37:28.364Z,6.62
2018-12-29T06:39:55.333Z,6.94
2018-12-29T06:42:22.461Z,6.94
2018-12-29T06:44:49.539Z,6.75
2018-12-29T06:47:16.483Z,6.94
2018-12-29T06:49:43.422Z,6.75
2018-12-29T06:52:10.346Z,6.87
2018-12-29T06:54:37.312Z,6.75
2018-12-29T06:57:04.246Z,6.69
2018-12-29T06:59:31.216Z,6.69
2018-12-29T07:01:58.198Z,6.75
2018-12-29T07:09:19.568Z,6.75
2018-12-29T07:11:46.521Z,6.81
2018-12-29T07:14:13.533Z,6.50
2018-12-29T07:16:42.410Z,6.94
2018-12-29T07:19:08.383Z,6.62
2018-12-29T07:21:35.354Z,6.81
2018-12-29T07:24:02.265Z,6.94
2018-12-29T07:26:29.207Z,6.75
2018-12-29T07:28:56.153Z,6.75
2018-12-29T07:31:23.084Z,6.87
2018-12-29T07:33:50.213Z,6.69
2018-12-29T07:36:17.194Z,6.69
2018-12-29T07:38:44.142Z,7.00
2018-12-29T07:41:11.188Z,6.94
2018-12-29T07:43:38.138Z,7.06
2018-12-29T07:46:05.179Z,6.94
2018-12-29T07:48:32.992Z,6.94
2018-12-29T07:51:03.814Z,6.62
2018-12-29T07:53:39.453Z,6.50
2018-12-29T07:56:13.809Z,6.81
2018-12-29T07:58:40.772Z,6.75
2018-12-29T08:01:07.770Z,6.62
2018-12-29T08:03:34.768Z,6.87
2018-12-29T08:06:01.737Z,6.69
2018-12-29T08:08:28.796Z,6.37
2018-12-29T08:10:55.718Z,6.62
2018-12-29T08:13:23.998Z,6.62
2018-12-29T08:15:51.840Z,6.81
2018-12-29T08:18:18.782Z,6.56
2018-12-29T08:20:46.249Z,6.56
2018-12-29T08:23:13.278Z,6.69
2018-12-29T08:25:40.193Z,6.75
2018-12-29T08:28:07.090Z,6.44
2018-12-29T08:30:34.000Z,6.50
2018-12-29T08:33:00.907Z,6.56
2018-12-29T08:35:27.847Z,6.62
2018-12-29T08:37:54.741Z,6.62
2018-12-29T08:40:21.779Z,6.50
2018-12-29T08:42:48.805Z,6.44
2018-12-29T08:45:15.771Z,6.62
2018-12-29T08:47:42.715Z,6.69
2018-12-29T08:50:13.144Z,6.56
2018-12-29T08:52:36.738Z,6.69
2018-12-29T08:55:03.754Z,6.69
2018-12-29T08:57:30.776Z,6.44
2018-12-29T08:59:57.740Z,6.62
2018-12-29T09:02:25.406Z,6.56
2018-12-29T09:04:52.371Z,6.50
2018-12-29T09:07:19.382Z,6.75
2018-12-29T09:09:46.376Z,6.62
2018-12-29T09:12:13.337Z,6.37
2018-12-29T09:14:42.487Z,6.37
2018-12-29T09:17:12.182Z,6.56
2018-12-29T09:19:36.526Z,6.56
2018-12-29T09:22:03.587Z,6.31
2018-12-29T09:24:30.577Z,6.87
2018-12-29T09:26:57.508Z,6.75
2018-12-29T09:29:24.491Z,6.75
2018-12-29T09:31:51.558Z,6.81
2018-12-29T09:34:22.383Z,6.62
2018-12-29T09:36:45.955Z,6.62
2018-12-29T09:39:12.967Z,6.69
2018-12-29T09:41:40.801Z,6.69
2018-12-29T09:44:07.769Z,6.56
2018-12-29T09:46:35.401Z,6.62
2018-12-29T09:49:02.542Z,6.56
2018-12-29T09:51:29.582Z,6.50
2018-12-29T09:53:56.595Z,6.75
2018-12-29T09:56:23.601Z,6.81
2018-12-29T09:58:50.707Z,6.87
2018-12-29T10:01:18.345Z,6.75
2018-12-29T10:03:45.277Z,6.69
2018-12-29T10:06:12.254Z,6.87
2018-12-29T10:08:39.145Z,7.00
2018-12-29T10:11:06.163Z,6.87
2018-12-29T10:13:33.147Z,7.06
2018-12-29T10:16:00.181Z,6.87
2018-12-29T10:18:27.199Z,6.94
2018-12-29T10:20:54.144Z,6.94
2018-12-29T10:23:21.196Z,6.75
2018-12-29T10:25:48.146Z,6.81
2018-12-29T10:28:15.081Z,6.75
2018-12-29T10:30:42.060Z,6.75
2018-12-29T10:33:09.007Z,6.94
2018-12-29T10:35:36.010Z,6.87
2018-12-29T10:38:03.005Z,7.06
2018-12-29T10:40:30.051Z,6.81
2018-12-29T10:42:57.027Z,6.81
2018-12-29T10:45:23.969Z,6.81
2018-12-29T10:47:51.443Z,6.81
2018-12-29T10:50:18.451Z,7.19
2018-12-29T10:52:46.092Z,6.94
2018-12-29T10:55:13.049Z,7.00
2018-12-29T10:57:39.953Z,7.12
2018-12-29T11:00:08.263Z,7.06
2018-12-29T11:02:35.157Z,7.12
2018-12-29T11:05:02.096Z,6.81
2018-12-29T11:07:29.083Z,7.06
2018-12-29T11:09:56.082Z,7.12
2018-12-29T11:12:23.033Z,7.06
2018-12-29T11:14:50.000Z,7.06
2018-12-29T11:17:17.072Z,7.06
2018-12-29T11:19:44.047Z,7.00
2018-12-29T11:22:11.097Z,7.25
2018-12-29T11:24:38.035Z,7.12
2018-12-29T11:27:05.062Z,7.00
2018-12-29T11:29:32.198Z,7.19
2018-12-29T11:31:59.759Z,6.94
2018-12-29T11:34:26.810Z,7.00
2018-12-29T11:36:53.750Z,7.12
2018-12-29T11:39:20.682Z,7.31
2018-12-29T11:41:47.843Z,7.31
2018-12-29T11:44:14.811Z,7.00
2018-12-29T11:46:41.799Z,7.12
2018-12-29T11:49:08.875Z,7.19
2018-12-29T11:51:35.902Z,7.19
2018-12-29T11:54:02.922Z,7.12
2018-12-29T11:56:29.977Z,7.44
2018-12-29T11:58:57.019Z,7.31
2018-12-29T12:01:24.033Z,7.19
2018-12-29T12:03:51.046Z,7.19
2018-12-29T12:06:17.999Z,7.44
2018-12-29T12:08:45.014Z,7.19
2018-12-29T12:11:12.060Z,7.44
2018-12-29T12:13:39.044Z,7.44
2018-12-29T12:16:06.047Z,7.44
2018-12-29T12:18:33.014Z,7.25
2018-12-29T12:21:00.110Z,7.69
2018-12-29T12:23:27.132Z,7.62
2018-12-29T12:25:54.168Z,7.81
2018-12-29T12:28:21.797Z,7.56
2018-12-29T12:30:48.804Z,7.56
2018-12-29T12:33:16.335Z,7.44
2018-12-29T12:40:37.545Z,7.75
2018-12-29T12:43:04.599Z,7.31
2018-12-29T12:45:31.568Z,7.31
2018-12-29T12:48:04.994Z,7.25
2018-12-29T12:50:25.612Z,7.62
2018-12-29T12:52:52.652Z,7.56
2018-12-29T12:55:19.719Z,7.37
2018-12-29T12:57:46.674Z,7.25
2018-12-29T13:00:13.696Z,7.31
2018-12-29T13:02:40.636Z,7.56
2018-12-29T13:05:08.147Z,7.37
2018-12-29T13:07:35.144Z,7.44
2018-12-29T13:10:02.161Z,7.62
2018-12-29T13:12:29.098Z,7.56
2018-12-29T13:14:56.011Z,7.44
2018-12-29T13:17:23.006Z,7.37
2018-12-29T13:19:49.987Z,7.44
2018-12-29T13:22:16.950Z,7.44
2018-12-29T13:24:43.951Z,7.62
2018-12-29T13:27:11.040Z,7.56
2018-12-29T13:29:38.057Z,7.44
2018-12-29T13:32:05.932Z,7.44
2018-12-29T13:34:32.926Z,7.50
2018-12-29T13:37:00.581Z,7.87
2018-12-29T13:39:27.645Z,7.37
2018-12-29T13:41:54.639Z,7.44
2018-12-29T13:44:21.627Z,7.75
2018-12-29T13:46:48.723Z,7.44
2018-12-29T13:49:15.703Z,7.56
2018-12-29T13:51:42.777Z,7.50
2018-12-29T13:54:09.830Z,7.69
2018-12-29T13:56:36.950Z,7.50
2018-12-29T13:59:03.961Z,7.87
2018-12-29T14:01:31.021Z,7.62
2018-12-29T14:03:58.013Z,7.87
2018-12-29T14:06:24.950Z,7.56
2018-12-29T14:08:51.926Z,7.62
2018-12-29T14:11:18.851Z,7.50
2018-12-29T14:13:45.775Z,7.62
2018-12-29T14:16:12.719Z,7.37
2018-12-29T14:18:39.670Z,7.50
2018-12-29T14:21:06.698Z,7.81
2018-12-29T14:23:33.782Z,7.62
2018-12-29T14:26:01.010Z,7.69
2018-12-29T14:28:28.061Z,7.37
2018-12-29T14:30:55.027Z,7.62
2018-12-29T14:33:22.233Z,7.44
2018-12-29T14:35:49.181Z,7.62
2018-12-29T14:38:16.213Z,7.69
2018-12-29T14:40:43.269Z,7.75
2018-12-29T14:43:10.237Z,7.50
2018-12-29T14:45:37.225Z,7.44
2018-12-29T14:48:04.187Z,7.87
2018-12-29T14:50:31.397Z,7.75
2018-12-29T14:52:58.478Z,8.00
2018-12-29T14:55:25.468Z,7.75
2018-12-29T14:57:52.446Z,7.87
2018-12-29T15:00:19.486Z,7.69
2018-12-29T15:02:46.492Z,7.44
2018-12-29T15:05:13.495Z,7.62
2018-12-29T15:07:40.461Z,7.56
2018-12-29T15:10:07.461Z,7.31
2018-12-29T15:12:34.511Z,7.87
2018-12-29T15:15:01.530Z,7.69
2018-12-29T15:17:28.761Z,7.50
2018-12-29T15:19:55.811Z,7.69
2018-12-29T15:22:22.835Z,7.69
2018-12-29T15:24:49.911Z,8.06
2018-12-29T15:27:16.862Z,7.75
2018-12-29T15:29:43.923Z,7.94
2018-12-29T15:32:10.912Z,7.81
2018-12-29T15:34:38.036Z,7.75
2018-12-29T15:37:05.701Z,7.87
2018-12-29T15:39:32.769Z,8.13
2018-12-29T15:41:59.844Z,7.75
2018-12-29T15:44:26.843Z,7.75
2018-12-29T15:46:53.870Z,7.81
2018-12-29T15:49:20.892Z,7.87
2018-12-29T15:51:47.876Z,7.94
2018-12-29T15:54:14.860Z,7.94
2018-12-29T15:56:42.569Z,7.87
2018-12-29T15:59:09.598Z,7.94
2018-12-29T16:01:39.754Z,7.94
2018-12-29T16:04:05.419Z,7.94
2018-12-29T16:06:32.417Z,8.00
2018-12-29T16:08:59.611Z,8.00
2018-12-29T16:11:27.291Z,7.69
2018-12-29T16:13:53.665Z,7.94
2018-12-29T16:16:20.619Z,8.00
2018-12-29T16:18:47.555Z,7.75
2018-12-29T16:21:14.692Z,7.62
2018-12-29T16:23:41.669Z,7.75
2018-12-29T16:26:12.648Z,7.69
2018-12-29T16:28:35.795Z,7.81
2018-12-29T16:31:02.655Z,8.00
2018-12-29T16:33:29.682Z,7.81
2018-12-29T16:35:56.795Z,7.75
2018-12-29T16:38:23.867Z,7.87
2018-12-29T16:40:57.675Z,7.81
2018-12-29T16:43:17.946Z,8.13
2018-12-29T16:45:45.152Z,7.94
2018-12-29T16:48:12.211Z,8.00
2018-12-29T16:50:39.187Z,8.00
2018-12-29T16:53:06.174Z,7.75
2018-12-29T16:55:33.125Z,8.06
2018-12-29T16:58:00.781Z,8.06
2018-12-29T17:00:27.709Z,8.06
2018-12-29T17:02:54.642Z,7.94
2018-12-29T17:05:21.621Z,7.75
2018-12-29T17:07:49.102Z,7.81
2018-12-29T17:10:16.093Z,7.94
2018-12-29T17:12:43.066Z,7.87
2018-12-29T17:15:10.088Z,7.94
2018-12-29T17:17:37.224Z,7.87
2018-12-29T17:20:04.311Z,7.62
2018-12-29T17:22:31.307Z,7.87
2018-12-29T17:24:58.321Z,7.69
2018-12-29T17:27:25.318Z,7.56
2018-12-29T17:29:52.328Z,7.94
2018-12-29T17:32:19.445Z,7.69
2018-12-29T17:34:46.359Z,7.62
2018-12-29T17:37:13.317Z,7.62
2018-12-29T17:39:40.394Z,7.62
2018-12-29T17:42:07.584Z,7.75
2018-12-29T17:44:34.517Z,7.81
2018-12-29T17:47:01.467Z,7.87
2018-12-29T17:49:28.406Z,7.69
2018-12-29T17:51:55.638Z,7.87
2018-12-29T17:54:22.644Z,7.50
2018-12-29T17:56:49.648Z,7.87
2018-12-29T17:59:16.616Z,7.69
2018-12-29T18:01:43.610Z,7.56
2018-12-29T18:04:10.622Z,7.81
2018-12-29T18:06:37.585Z,7.75
2018-12-29T18:09:05.442Z,7.69
2018-12-29T18:11:32.418Z,7.56
2018-12-29T18:13:59.351Z,7.81
2018-12-29T18:16:26.357Z,7.75
2018-12-29T18:18:53.517Z,8.06
2018-12-29T18:21:20.389Z,7.69
2018-12-29T18:23:47.339Z,7.62
2018-12-29T18:26:14.407Z,7.56
2018-12-29T18:28:41.412Z,7.81
2018-12-29T18:31:08.419Z,7.62
2018-12-29T18:33:37.373Z,7.75
2018-12-29T18:36:02.395Z,7.81
2018-12-29T18:38:29.530Z,7.62
2018-12-29T18:40:56.589Z,8.00
2018-12-29T18:43:23.571Z,7.62
2018-12-29T18:45:50.538Z,7.87
2018-12-29T18:48:17.569Z,7.87
2018-12-29T18:50:44.488Z,8.00
2018-12-29T18:53:11.462Z,7.81
2018-12-29T18:55:38.455Z,7.81
2018-12-29T18:58:05.481Z,7.75
2018-12-29T19:00:32.578Z,7.62
2018-12-29T19:03:00.250Z,7.87
2018-12-29T19:05:27.226Z,7.81
2018-12-29T19:07:54.189Z,7.94
2018-12-29T19:10:21.187Z,7.87
2018-12-29T19:12:48.177Z,7.44
2018-12-29T19:15:15.102Z,7.31
2018-12-29T19:17:42.162Z,7.50
2018-12-29T19:20:09.170Z,7.31
2018-12-29T19:22:36.170Z,7.44
2018-12-29T19:25:03.117Z,7.19
2018-12-29T19:27:30.167Z,7.12
2018-12-29T19:29:57.160Z,7.00
2018-12-29T19:32:24.196Z,7.12
2018-12-29T19:34:51.274Z,6.87
2018-12-29T19:37:18.241Z,6.94
2018-12-29T19:39:45.233Z,6.81
2018-12-29T19:42:12.234Z,6.62
2018-12-29T19:44:39.306Z,6.69
2018-12-29T19:47:06.295Z,6.62
2018-12-29T19:49:33.313Z,6.87
2018-12-29T19:52:00.467Z,6.75
2018-12-29T19:54:27.507Z,6.62
2018-12-29T19:56:54.469Z,6.62
2018-12-29T19:59:21.494Z,6.44
2018-12-29T20:01:48.442Z,6.62
2018-12-29T20:04:15.456Z,6.44
2018-12-29T20:06:42.811Z,6.37
2018-12-29T20:09:09.845Z,6.31
2018-12-29T20:11:36.856Z,6.37
2018-12-29T20:14:03.827Z,6.37
2018-12-29T20:16:30.774Z,6.37
2018-12-29T20:18:57.763Z,6.31
2018-12-29T20:21:24.736Z,6.06
2018-12-29T20:23:51.932Z,6.31
2018-12-29T20:26:18.972Z,6.31
2018-12-29T20:28:45.970Z,6.25
2018-12-29T20:31:12.981Z,6.06
2018-12-29T20:33:39.928Z,6.25
2018-12-29T20:36:07.464Z,6.06
2018-12-29T20:38:34.493Z,5.87
2018-12-29T20:41:01.461Z,5.87
2018-12-29T20:43:28.459Z,5.94
2018-12-29T20:45:55.494Z,5.75
2018-12-29T20:48:22.449Z,6.00
2018-12-29T20:50:49.471Z,5.94
2018-12-29T20:53:16.561Z,5.94
2018-12-29T20:55:43.564Z,5.94
2018-12-29T20:58:10.530Z,5.94
2018-12-29T21:00:37.586Z,5.94
2018-12-29T21:03:04.523Z,5.94
2018-12-29T21:05:31.494Z,5.69
2018-12-29T21:07:58.532Z,5.69
2018-12-29T21:10:25.529Z,5.81
2018-12-29T21:12:52.633Z,5.75
2018-12-29T21:15:19.606Z,5.81
2018-12-29T21:17:46.593Z,5.69
2018-12-29T21:20:17.328Z,5.75
2018-12-29T21:22:40.558Z,5.69
2018-12-29T21:25:07.589Z,5.75
2018-12-29T21:27:34.621Z,5.75
2018-12-29T21:30:01.641Z,6.06
2018-12-29T21:32:28.623Z,6.06
2018-12-29T21:34:55.624Z,5.75
2018-12-29T21:37:22.568Z,5.75
2018-12-29T21:39:49.500Z,6.00
2018-12-29T21:42:16.526Z,5.87
2018-12-29T21:44:43.498Z,6.06
2018-12-29T21:47:10.501Z,5.75
2018-12-29T21:49:37.492Z,6.00
2018-12-29T21:52:04.480Z,5.87
2018-12-29T21:54:31.437Z,5.75
2018-12-29T21:56:58.378Z,6.00
2018-12-29T21:59:25.356Z,5.94
2018-12-29T22:01:52.489Z,6.00
2018-12-29T22:04:19.488Z,6.00
2018-12-29T22:06:46.520Z,6.06
2018-12-29T22:09:13.767Z,6.06
2018-12-29T22:11:40.769Z,6.00
2018-12-29T22:14:07.791Z,6.06
2018-12-29T22:16:34.811Z,5.87
2018-12-29T22:19:01.838Z,6.06
2018-12-29T22:21:28.834Z,6.06
2018-12-29T22:23:55.766Z,5.94
2018-12-29T22:26:22.797Z,6.06
2018-12-29T22:28:49.862Z,6.06
2018-12-29T22:31:17.450Z,5.81
2018-12-29T22:33:44.438Z,6.00
2018-12-29T22:36:11.513Z,5.87
2018-12-29T22:38:38.509Z,6.00
2018-12-29T22:41:05.917Z,5.94
2018-12-29T22:43:32.926Z,6.19
2018-12-29T22:45:59.925Z,5.94
2018-12-29T22:48:26.970Z,6.06
2018-12-29T22:50:53.944Z,6.06
2018-12-29T22:53:20.949Z,6.19
2018-12-29T22:55:47.926Z,6.12
2018-12-29T22:58:14.931Z,6.19
2018-12-29T23:00:43.086Z,6.25
2018-12-29T23:03:10.052Z,6.25
2018-12-29T23:05:37.051Z,6.19
2018-12-29T23:08:04.124Z,6.25
2018-12-29T23:10:31.106Z,6.19
2018-12-29T23:12:58.113Z,6.19
2018-12-29T23:15:25.078Z,6.19
2018-12-29T23:17:52.141Z,6.00
2018-12-29T23:20:19.154Z,5.94
2018-12-29T23:22:46.130Z,6.25
2018-12-29T23:25:13.125Z,6.31
2018-12-29T23:27:40.122Z,5.94
2018-12-29T23:30:07.112Z,6.12
2018-12-29T23:32:34.116Z,6.00
2018-12-29T23:35:01.029Z,6.00
2018-12-29T23:37:28.024Z,6.00
2018-12-29T23:39:55.067Z,6.12
2018-12-29T23:42:22.102Z,6.12
2018-12-29T23:44:49.814Z,6.50
2018-12-29T23:47:16.815Z,6.31
2018-12-29T23:49:43.916Z,6.25
2018-12-29T23:52:10.914Z,6.19
2018-12-29T23:54:37.896Z,6.12
2018-12-29T23:57:04.908Z,6.25
2018-12-29T23:59:31.954Z,6.44
